Time;durP1;ratioP1;P1;durP2;ratioP2;P2;SDS_P1;SDS_P2;PMS_P1;PMS_P2;Temp;Humidity;BMP_temperature;BMP_pressure;BME280_temperature;BME280_humidity;BME280_pressure;Samples;Min_cycle;Max_cycle;Signal;HPM_P1;HPM_P2
2022/01/27 00:05:18;;;;;;;66.30;20.35;;;5.20;99.90;;;;;;5033657;28;20084;-73
2022/01/27 00:07:55;;;;;;;68.15;20.48;;;5.10;99.90;;;;;;5054224;28;20049;-73
2022/01/27 00:11:09;;;;;;;72.40;22.30;;;5.20;99.90;;;;;;5054068;28;20136;-72
2022/01/27 00:13:15;;;;;;;72.57;28.05;;;5.10;99.90;;;;;;5034684;28;20055;-72
2022/01/27 00:15:44;;;;;;;65.32;21.25;;;5.10;99.90;;;;;;5053875;28;20068;-74
2022/01/27 00:18:16;;;;;;;64.47;20.38;;;5.20;99.90;;;;;;5054650;28;20057;-73
2022/01/27 00:20:42;;;;;;;57.70;19.10;;;5.20;99.90;;;;;;5053839;28;20040;-73
2022/01/27 00:23:08;;;;;;;68.43;22.65;;;5.20;99.90;;;;;;5054816;28;20048;-72
2022/01/27 00:25:34;;;;;;;64.50;21.17;;;5.20;99.90;;;;;;5053804;28;20049;-73
2022/01/27 00:28:00;;;;;;;69.43;21.65;;;5.20;99.90;;;;;;5054863;28;20048;-73
2022/01/27 00:30:26;;;;;;;61.15;24.00;;;5.20;99.90;;;;;;5054887;28;20049;-73
2022/01/27 00:32:52;;;;;;;67.80;21.42;;;5.30;99.90;;;;;;5053454;28;20041;-75
2022/01/27 00:35:18;;;;;;;67.07;22.05;;;5.30;99.90;;;;;;5053884;28;20132;-73
2022/01/27 00:37:43;;;;;;;61.88;20.58;;;5.30;99.90;;;;;;5054356;28;20139;-74
2022/01/27 00:40:12;;;;;;;66.63;22.95;;;5.30;99.90;;;;;;5054649;28;20055;-73
2022/01/27 00:42:41;;;;;;;65.50;20.25;;;5.30;99.90;;;;;;5053445;28;20076;-73
2022/01/27 00:45:08;;;;;;;66.47;21.13;;;5.30;99.90;;;;;;5054961;28;20120;-72
2022/01/27 00:47:34;;;;;;;60.85;19.30;;;5.30;99.90;;;;;;5053078;28;20086;-72
2022/01/27 00:49:59;;;;;;;61.05;20.85;;;5.30;99.90;;;;;;5054495;28;20049;-72
2022/01/27 00:52:45;;;;;;;67.03;26.05;;;5.30;99.90;;;;;;5053370;28;20041;-72
2022/01/27 00:55:12;;;;;;;62.05;20.48;;;5.30;99.90;;;;;;5054339;28;20128;-72
2022/01/27 01:00:06;;;;;;;68.75;22.55;;;5.40;99.90;;;;;;5053239;28;20471;-73
2022/01/27 01:07:45;;;;;;;57.72;20.05;;;5.30;99.90;;;;;;5053958;28;20148;-76
2022/01/27 01:15:42;;;;;;;61.05;20.63;;;5.30;99.90;;;;;;5053483;28;20055;-73
2022/01/27 01:31:31;;;;;;;61.42;20.02;;;5.30;99.90;;;;;;5052742;28;20452;-73
2022/01/27 01:34:13;;;;;;;56.22;19.52;;;5.30;99.90;;;;;;5054015;28;20366;-73
2022/01/27 01:36:48;;;;;;;62.78;20.02;;;5.30;99.90;;;;;;5053330;28;20094;-75
2022/01/27 01:39:14;;;;;;;57.42;21.00;;;5.30;99.90;;;;;;5053557;28;20041;-74
2022/01/27 01:41:42;;;;;;;53.40;19.80;;;5.30;99.90;;;;;;5036442;28;20052;-73
2022/01/27 01:44:08;;;;;;;54.28;18.55;;;5.30;99.90;;;;;;5052267;28;20053;-73
2022/01/27 01:46:35;;;;;;;61.42;19.30;;;5.30;99.90;;;;;;5053539;28;20045;-73
2022/01/27 01:49:00;;;;;;;60.28;20.05;;;5.30;99.90;;;;;;5053686;28;20053;-73
2022/01/27 01:51:28;;;;;;;53.38;17.17;;;5.20;99.90;;;;;;5053436;28;20477;-73
2022/01/27 01:53:55;;;;;;;48.85;16.38;;;5.30;99.90;;;;;;5053403;28;20088;-73
2022/01/27 01:56:22;;;;;;;48.75;16.13;;;5.30;99.90;;;;;;5053959;28;20412;-73
2022/01/27 01:58:49;;;;;;;54.40;18.30;;;5.40;99.90;;;;;;5055382;28;20079;-74
2022/01/27 02:01:15;;;;;;;57.27;18.60;;;5.30;99.90;;;;;;5055061;28;20492;-72
2022/01/27 02:03:41;;;;;;;56.78;19.33;;;5.40;99.90;;;;;;5073124;28;20425;-74
2022/01/27 02:06:16;;;;;;;50.65;16.80;;;5.40;99.90;;;;;;5073208;28;20120;-73
2022/01/27 02:09:06;;;;;;;48.50;17.80;;;5.40;99.90;;;;;;5055079;28;20070;-73
2022/01/27 02:19:44;;;;;;;55.10;18.65;;;5.50;99.90;;;;;;5072890;28;20088;-74
2022/01/27 02:22:09;;;;;;;53.50;18.30;;;5.50;99.90;;;;;;5055167;28;20131;-73
2022/01/27 02:24:36;;;;;;;54.75;16.23;;;5.50;99.90;;;;;;5072560;28;20556;-73
2022/01/27 02:27:03;;;;;;;59.08;17.52;;;5.50;99.90;;;;;;5054739;28;20048;-73
2022/01/27 02:29:29;;;;;;;56.28;18.90;;;5.60;99.90;;;;;;5054798;28;20121;-75
2022/01/27 02:31:58;;;;;;;62.70;21.00;;;5.60;99.90;;;;;;5054819;28;20048;-74
2022/01/27 02:34:24;;;;;;;57.75;18.77;;;5.60;99.90;;;;;;5073019;28;20044;-74
2022/01/27 02:36:50;;;;;;;58.85;18.70;;;5.60;99.90;;;;;;5054972;28;20105;-75
2022/01/27 02:39:18;;;;;;;55.17;18.25;;;5.50;99.90;;;;;;5055009;28;20040;-72
2022/01/27 02:41:49;;;;;;;;;;;5.50;99.90;;;;;;5054662;28;20480;-72
2022/01/27 02:44:53;;;;;;;57.13;20.60;;;5.50;99.90;;;;;;5037855;28;19982;-72
2022/01/27 02:47:19;;;;;;;53.38;17.23;;;5.50;99.90;;;;;;5055029;28;20056;-72
2022/01/27 02:49:45;;;;;;;53.95;17.55;;;5.50;99.90;;;;;;5072432;28;20048;-73
2022/01/27 02:52:11;;;;;;;55.60;18.35;;;5.60;99.90;;;;;;5072163;28;20048;-74
2022/01/27 02:54:36;;;;;;;56.15;19.77;;;5.60;99.90;;;;;;5037848;28;20067;-75
2022/01/27 02:57:03;;;;;;;60.75;19.83;;;5.60;99.90;;;;;;5072142;28;20056;-74
2022/01/27 02:59:29;;;;;;;54.85;19.23;;;5.60;99.90;;;;;;5054213;28;20048;-73
2022/01/27 03:01:55;;;;;;;57.13;18.77;;;5.60;99.90;;;;;;5054933;28;20051;-73
2022/01/27 03:04:21;;;;;;;51.53;16.50;;;5.60;99.90;;;;;;5072380;28;20091;-74
2022/01/27 03:06:48;;;;;;;68.22;21.40;;;5.70;99.90;;;;;;5072478;28;20117;-73
2022/01/27 03:09:14;;;;;;;57.95;18.55;;;5.70;99.90;;;;;;5071972;28;20037;-73
2022/01/27 03:11:56;;;;;;;52.42;18.23;;;5.70;99.90;;;;;;5072432;28;20052;-74
2022/01/27 03:14:23;;;;;;;62.28;21.95;;;5.70;99.90;;;;;;5072586;28;20056;-74
2022/01/27 03:16:53;;;;;;;51.33;19.10;;;5.70;99.90;;;;;;5072663;28;20401;-74
2022/01/27 03:19:19;;;;;;;54.80;18.58;;;5.80;99.90;;;;;;5038779;28;20056;-73
2022/01/27 03:21:45;;;;;;;50.03;18.75;;;5.70;99.90;;;;;;5040244;28;20141;-73
2022/01/27 03:24:11;;;;;;;55.72;17.67;;;5.70;99.90;;;;;;5058032;28;20408;-73
2022/01/27 03:26:37;;;;;;;54.92;18.15;;;5.80;99.90;;;;;;5058355;28;20041;-72
2022/01/27 03:29:03;;;;;;;56.95;18.00;;;5.80;99.90;;;;;;5076592;28;20067;-74
2022/01/27 03:31:29;;;;;;;54.63;17.33;;;5.70;99.90;;;;;;5058926;28;20049;-73
2022/01/27 03:33:55;;;;;;;54.20;16.95;;;5.80;99.90;;;;;;5041727;28;20147;-75
2022/01/27 03:36:21;;;;;;;57.00;18.95;;;5.80;99.90;;;;;;5058537;28;20132;-73
2022/01/27 03:38:48;;;;;;;56.95;18.33;;;5.80;99.90;;;;;;5076455;28;20443;-72
2022/01/27 03:41:19;;;;;;;62.70;20.67;;;5.80;99.90;;;;;;5058409;28;20044;-73
2022/01/27 03:43:45;;;;;;;58.25;18.73;;;5.80;99.90;;;;;;5059009;28;20052;-73
2022/01/27 03:46:11;;;;;;;54.75;17.92;;;5.80;99.90;;;;;;5058488;28;20064;-73
2022/01/27 03:48:37;;;;;;;52.97;18.83;;;5.80;99.90;;;;;;5057921;28;20056;-73
2022/01/27 03:51:03;;;;;;;53.22;17.10;;;5.80;99.90;;;;;;5057864;28;20075;-74
2022/01/27 03:53:30;;;;;;;55.47;17.67;;;5.80;99.90;;;;;;5040464;28;20633;-74
2022/01/27 03:55:56;;;;;;;54.10;17.67;;;5.80;99.90;;;;;;5075588;28;20469;-74
2022/01/27 03:58:22;;;;;;;47.83;15.23;;;5.80;99.90;;;;;;5075646;28;20143;-73
2022/01/27 04:00:48;;;;;;;60.72;20.02;;;5.80;99.90;;;;;;5075576;28;20113;-73
2022/01/27 04:03:16;;;;;;;54.10;20.70;;;5.70;99.90;;;;;;5057385;28;20052;-72
2022/01/27 04:05:49;;;;;;;51.22;17.10;;;5.60;99.90;;;;;;5075455;28;20049;-72
2022/01/27 04:08:15;;;;;;;57.72;19.20;;;5.60;99.90;;;;;;5057409;28;20127;-74
2022/01/27 04:10:42;;;;;;;59.28;19.98;;;5.60;99.90;;;;;;5057107;28;20053;-74
2022/01/27 04:13:08;;;;;;;52.42;18.60;;;5.60;99.90;;;;;;5057314;28;20052;-72
2022/01/27 04:15:35;;;;;;;51.08;17.15;;;5.60;99.90;;;;;;5075132;28;20050;-72
2022/01/27 04:18:01;;;;;;;;;;;5.60;99.90;;;;;;5075182;28;20552;-73
2022/01/27 04:20:27;;;;;;;55.63;19.25;;;5.60;99.90;;;;;;5075312;28;20010;-72
2022/01/27 04:22:53;;;;;;;57.05;17.05;;;5.60;99.90;;;;;;5056896;28;20449;-73
2022/01/27 04:25:18;;;;;;;48.47;17.13;;;5.60;99.90;;;;;;5056973;28;20121;-72
2022/01/27 04:27:51;;;;;;;51.53;16.67;;;5.70;99.90;;;;;;5057146;28;20090;-72
2022/01/27 04:30:21;;;;;;;58.35;18.85;;;5.60;99.90;;;;;;5074967;28;20056;-72
2022/01/27 04:32:52;;;;;;;54.53;19.30;;;5.70;99.90;;;;;;5040181;28;20128;-72
2022/01/27 04:35:21;;;;;;;54.88;18.77;;;5.70;99.90;;;;;;5056842;28;20049;-74
2022/01/27 04:45:59;;;;;;;52.25;16.40;;;5.80;99.90;;;;;;5057290;28;20370;-73
2022/01/27 04:48:28;;;;;;;58.20;18.92;;;5.80;99.90;;;;;;5057070;28;20049;-72
2022/01/27 04:50:57;;;;;;;58.45;16.70;;;5.80;99.90;;;;;;5056715;28;20390;-72
2022/01/27 04:53:29;;;;;;;47.45;16.20;;;5.90;99.90;;;;;;5056638;28;20445;-73
2022/01/27 04:55:58;;;;;;;59.25;19.15;;;5.90;99.90;;;;;;5040748;28;20084;-73
2022/01/27 04:58:30;;;;;;;55.30;18.00;;;5.90;99.90;;;;;;5055931;28;20192;-73
2022/01/27 05:00:59;;;;;;;51.75;17.20;;;5.90;99.90;;;;;;5057147;28;20085;-74
2022/01/27 05:03:51;;;;;;;52.15;17.27;;;5.90;99.90;;;;;;5074324;28;20416;-73
2022/01/27 05:06:11;;;;;;;50.85;16.08;;;5.90;99.90;;;;;;5073610;28;20566;-73
2022/01/27 05:08:37;;;;;;;51.63;18.70;;;5.90;99.90;;;;;;5074097;28;20092;-73
2022/01/27 05:11:25;;;;;;;47.45;15.60;;;5.90;99.90;;;;;;5074697;28;20389;-73
2022/01/27 05:13:58;;;;;;;47.83;17.02;;;5.90;99.90;;;;;;5074126;28;20133;-73
2022/01/27 05:16:24;;;;;;;44.90;15.18;;;5.90;99.90;;;;;;5074249;28;20333;-73
2022/01/27 05:18:50;;;;;;;54.35;17.75;;;5.90;99.90;;;;;;5074701;28;20472;-72
2022/01/27 05:21:16;;;;;;;57.78;19.92;;;5.90;99.90;;;;;;5073811;28;20048;-74
2022/01/27 05:23:41;;;;;;;46.38;15.07;;;5.90;99.90;;;;;;5073701;28;20064;-75
2022/01/27 05:26:07;;;;;;;48.17;17.35;;;5.90;99.90;;;;;;5039723;28;20049;-74
2022/01/27 05:28:33;;;;;;;49.40;16.50;;;5.90;99.90;;;;;;5074246;28;20080;-73
2022/01/27 05:30:59;;;;;;;60.13;17.35;;;5.80;99.90;;;;;;5073868;28;20044;-73
2022/01/27 05:33:24;;;;;;;46.95;16.33;;;5.90;99.90;;;;;;5073650;28;20185;-73
2022/01/27 05:35:50;;;;;;;53.40;16.30;;;5.90;99.90;;;;;;5055845;28;20044;-72
2022/01/27 05:38:16;;;;;;;54.13;16.45;;;6.00;99.90;;;;;;5055548;28;20088;-73
2022/01/27 05:40:44;;;;;;;49.60;16.02;;;5.90;99.90;;;;;;5073588;28;20048;-73
2022/01/27 05:43:10;;;;;;;;;;;6.00;99.90;;;;;;5073790;28;20052;-73
2022/01/27 05:45:36;;;;;;;49.33;14.43;;;6.00;99.90;;;;;;5038237;28;19928;-73
2022/01/27 05:48:02;;;;;;;48.25;15.88;;;6.00;99.90;;;;;;5055546;28;20091;-72
2022/01/27 05:50:28;;;;;;;58.50;17.52;;;6.00;99.90;;;;;;5073165;28;20056;-73
2022/01/27 05:52:53;;;;;;;50.53;15.88;;;6.10;99.90;;;;;;5055423;28;20048;-73
2022/01/27 05:55:19;;;;;;;53.08;17.63;;;6.00;99.90;;;;;;5073343;28;20503;-73
2022/01/27 05:57:45;;;;;;;48.22;15.93;;;6.00;99.90;;;;;;5038778;28;20148;-73
2022/01/27 06:00:11;;;;;;;43.63;13.52;;;6.10;99.90;;;;;;5056417;28;20139;-74
2022/01/27 06:02:37;;;;;;;44.67;15.05;;;6.00;99.90;;;;;;5055385;28;20056;-74
2022/01/27 06:05:04;;;;;;;46.95;15.50;;;6.00;99.90;;;;;;5055640;28;20103;-74
2022/01/27 06:07:30;;;;;;;54.37;16.67;;;6.10;99.90;;;;;;5055278;28;20044;-73
2022/01/27 06:09:57;;;;;;;61.00;18.43;;;6.00;99.90;;;;;;5055290;28;20131;-73
2022/01/27 06:12:23;;;;;;;65.40;18.55;;;6.00;99.90;;;;;;5073596;28;20051;-73
2022/01/27 06:14:49;;;;;;;60.67;19.00;;;5.90;99.90;;;;;;5039027;28;20361;-73
2022/01/27 06:17:15;;;;;;;57.80;16.58;;;5.80;99.90;;;;;;5072936;28;20040;-72
2022/01/27 06:19:46;;;;;;;54.60;16.35;;;5.70;99.90;;;;;;5055385;28;20057;-74
2022/01/27 06:22:13;;;;;;;54.78;18.30;;;5.70;99.90;;;;;;5073224;28;20105;-74
2022/01/27 06:24:43;;;;;;;;;;;5.70;99.90;;;;;;5055595;28;20055;-73
2022/01/27 06:27:09;;;;;;;71.85;21.27;;;5.60;99.90;;;;;;5072752;28;19921;-73
2022/01/27 06:29:36;;;;;;;51.03;16.55;;;5.60;99.90;;;;;;5072838;28;20072;-71
2022/01/27 06:32:02;;;;;;;47.00;15.73;;;5.60;99.90;;;;;;5038142;28;20060;-72
2022/01/27 06:34:28;;;;;;;53.35;16.65;;;5.60;99.90;;;;;;5055397;28;20055;-73
2022/01/27 06:36:54;;;;;;;62.40;18.90;;;5.60;99.90;;;;;;5038600;28;20495;-73
2022/01/27 06:39:19;;;;;;;64.38;18.77;;;5.50;99.90;;;;;;5072875;28;20465;-73
2022/01/27 06:41:45;;;;;;;71.45;19.63;;;5.50;99.90;;;;;;5054701;28;20044;-72
2022/01/27 06:44:11;;;;;;;81.30;23.63;;;5.50;99.90;;;;;;5054561;28;20060;-73
2022/01/27 06:46:37;;;;;;;57.10;16.98;;;5.50;99.90;;;;;;5072443;28;20074;-72
2022/01/27 06:49:04;;;;;;;69.68;19.60;;;5.50;99.90;;;;;;5037863;28;20037;-71
2022/01/27 06:51:30;;;;;;;63.83;20.33;;;5.50;99.90;;;;;;5038275;28;20051;-73
2022/01/27 06:53:57;;;;;;;53.13;13.25;;;5.50;99.90;;;;;;5054522;28;20040;-72
2022/01/27 06:56:24;;;;;;;60.83;17.05;;;5.50;99.90;;;;;;5072290;28;20048;-72
2022/01/27 06:58:50;;;;;;;60.42;17.45;;;5.50;99.90;;;;;;5072050;28;20457;-72
2022/01/27 07:01:15;;;;;;;52.83;15.10;;;5.50;99.90;;;;;;5072274;28;20076;-71
2022/01/27 07:03:41;;;;;;;57.20;17.85;;;5.50;99.90;;;;;;5054725;28;20075;-72
2022/01/27 07:06:07;;;;;;;63.00;17.63;;;5.50;99.90;;;;;;5054425;28;20127;-73
2022/01/27 07:08:32;;;;;;;64.70;18.65;;;5.60;99.90;;;;;;5054573;28;20051;-73
2022/01/27 07:10:58;;;;;;;60.58;17.35;;;5.60;99.90;;;;;;5054608;28;20044;-71
2022/01/27 07:13:24;;;;;;;62.60;19.10;;;5.60;99.90;;;;;;5071929;28;20051;-73
2022/01/27 07:15:50;;;;;;;58.47;17.95;;;5.60;99.90;;;;;;5037834;28;20053;-72
2022/01/27 07:18:16;;;;;;;58.53;18.73;;;5.60;99.90;;;;;;5072290;28;20101;-72
2022/01/27 07:20:42;;;;;;;60.10;18.27;;;5.60;99.90;;;;;;5054449;28;20191;-72
2022/01/27 07:23:08;;;;;;;58.15;17.38;;;5.70;99.90;;;;;;5054539;28;20045;-73
2022/01/27 07:25:35;;;;;;;61.22;19.55;;;5.70;99.90;;;;;;5072561;28;20247;-72
2022/01/27 07:28:00;;;;;;;59.83;17.70;;;5.70;99.90;;;;;;5072196;28;20063;-72
2022/01/27 07:30:26;;;;;;;54.92;15.35;;;5.70;99.90;;;;;;5037715;28;20041;-72
2022/01/27 07:32:52;;;;;;;50.30;15.30;;;5.70;99.90;;;;;;5072647;28;20036;-70
2022/01/27 07:35:18;;;;;;;54.75;17.10;;;5.70;99.90;;;;;;5054733;28;20130;-72
2022/01/27 07:37:45;;;;;;;47.92;15.77;;;5.80;99.90;;;;;;5071864;28;20045;-72
2022/01/27 07:40:11;;;;;;;46.42;14.10;;;5.70;99.90;;;;;;5072470;28;20361;-73
2022/01/27 07:42:38;;;;;;;45.65;14.75;;;5.80;99.90;;;;;;5053930;28;20458;-72
2022/01/27 07:45:05;;;;;;;41.95;13.07;;;5.80;99.90;;;;;;5053550;28;20059;-72
2022/01/27 07:47:31;;;;;;;36.97;11.63;;;5.80;99.90;;;;;;5071605;28;20060;-71
2022/01/27 07:49:56;;;;;;;45.10;14.80;;;5.80;99.90;;;;;;5053873;28;20044;-73
2022/01/27 07:52:22;;;;;;;44.55;13.73;;;5.90;99.90;;;;;;5071578;28;20044;-73
2022/01/27 07:54:48;;;;;;;45.03;14.02;;;5.80;99.90;;;;;;5053634;28;20158;-72
2022/01/27 07:57:14;;;;;;;40.72;12.25;;;5.90;99.90;;;;;;5053687;28;20044;-73
2022/01/27 07:59:40;;;;;;;43.45;13.50;;;5.90;99.90;;;;;;5053008;28;20489;-72
2022/01/27 08:02:05;;;;;;;38.05;11.82;;;5.90;99.90;;;;;;5054158;28;20048;-72
2022/01/27 08:04:31;;;;;;;42.63;12.85;;;5.90;99.90;;;;;;5053815;28;20488;-73
2022/01/27 08:06:57;;;;;;;44.63;13.80;;;6.00;99.90;;;;;;5055064;28;20083;-72
2022/01/27 08:09:23;;;;;;;46.83;14.68;;;5.90;99.90;;;;;;5057384;28;20469;-72
2022/01/27 08:11:49;;;;;;;35.72;12.65;;;6.00;99.90;;;;;;5057381;28;20048;-72
2022/01/27 08:14:15;;;;;;;47.40;13.07;;;6.00;99.90;;;;;;5057638;28;20048;-72
2022/01/27 08:16:41;;;;;;;56.78;16.90;;;6.10;99.90;;;;;;5057458;28;20048;-71
2022/01/27 08:19:07;;;;;;;56.97;16.25;;;6.10;99.90;;;;;;5057869;28;20045;-72
2022/01/27 08:21:33;;;;;;;52.00;15.60;;;6.10;99.90;;;;;;5075013;28;20130;-73
2022/01/27 08:23:59;;;;;;;52.97;15.02;;;6.20;99.90;;;;;;5057212;28;20128;-72
2022/01/27 08:26:41;;;;;;;55.03;16.02;;;6.20;99.90;;;;;;5075495;28;20105;-71
2022/01/27 08:29:19;;;;;;;58.65;16.00;;;6.20;99.90;;;;;;5057685;28;20106;-72
2022/01/27 08:31:58;;;;;;;63.88;17.92;;;6.20;99.90;;;;;;5040496;28;20135;-72
2022/01/27 08:34:38;;;;;;;61.47;16.30;;;6.30;99.90;;;;;;5075564;28;20307;-73
2022/01/27 08:37:09;;;;;;;61.35;16.88;;;6.30;99.90;;;;;;5040791;28;20149;-72
2022/01/27 08:39:35;;;;;;;63.17;16.63;;;6.30;99.90;;;;;;5074834;28;20136;-71
2022/01/27 08:42:02;;;;;;;49.47;14.38;;;6.40;99.90;;;;;;5057423;28;20415;-72
2022/01/27 08:44:29;;;;;;;53.30;15.30;;;6.40;99.90;;;;;;5074440;28;20085;-71
2022/01/27 08:46:55;;;;;;;62.45;17.42;;;6.40;99.90;;;;;;5074980;28;20056;-73
2022/01/27 08:49:24;;;;;;;60.35;15.75;;;6.40;99.90;;;;;;5056719;28;20052;-72
2022/01/27 08:51:50;;;;;;;53.88;14.13;;;6.50;99.90;;;;;;5074478;28;20447;-72
2022/01/27 08:54:16;;;;;;;53.55;14.40;;;6.50;99.90;;;;;;5056516;28;20453;-72
2022/01/27 08:56:42;;;;;;;52.75;14.75;;;6.60;99.90;;;;;;5039479;28;20140;-72
2022/01/27 08:59:08;;;;;;;51.45;14.68;;;6.60;99.90;;;;;;5074504;28;20052;-72
2022/01/27 09:01:35;;;;;;;48.90;13.93;;;6.60;99.90;;;;;;5056900;28;20045;-72
2022/01/27 09:04:02;;;;;;;46.53;12.52;;;6.70;99.90;;;;;;5074452;28;20434;-70
2022/01/27 09:06:28;;;;;;;59.22;16.45;;;6.80;99.90;;;;;;5039480;28;20492;-72
2022/01/27 09:08:55;;;;;;;60.15;16.67;;;6.90;99.90;;;;;;5056314;28;20056;-72
2022/01/27 09:11:21;;;;;;;53.38;13.65;;;6.90;99.90;;;;;;5056374;28;20472;-72
2022/01/27 09:13:47;;;;;;;44.15;12.27;;;6.90;99.90;;;;;;5056392;28;20044;-71
2022/01/27 09:16:13;;;;;;;47.53;12.43;;;7.00;99.90;;;;;;5056334;28;20182;-71
2022/01/27 09:18:39;;;;;;;47.92;15.07;;;7.00;99.90;;;;;;5072966;28;20056;-72
2022/01/27 09:21:10;;;;;;;45.88;14.65;;;7.10;99.90;;;;;;5073965;28;20049;-72
2022/01/27 09:23:36;;;;;;;50.88;13.55;;;7.10;99.90;;;;;;5056298;28;20111;-72
2022/01/27 09:26:06;;;;;;;50.88;13.63;;;7.20;99.90;;;;;;5074075;28;20049;-71
2022/01/27 09:28:32;;;;;;;47.40;12.63;;;7.20;99.90;;;;;;5073455;28;20102;-72
2022/01/27 09:30:58;;;;;;;55.97;12.45;;;7.20;99.90;;;;;;5056326;28;20052;-72
2022/01/27 09:33:24;;;;;;;46.67;11.88;;;7.30;99.90;;;;;;5055835;28;20040;-72
2022/01/27 09:35:50;;;;;;;48.67;12.10;;;7.30;99.90;;;;;;5055916;28;20045;-72
2022/01/27 09:38:19;;;;;;;46.67;12.35;;;7.30;99.90;;;;;;5055390;28;20598;-71
2022/01/27 09:40:49;;;;;;;45.78;12.25;;;7.30;99.90;;;;;;5073490;28;20080;-72
2022/01/27 09:43:15;;;;;;;49.28;12.00;;;7.30;99.90;;;;;;5055767;28;20055;-72
2022/01/27 09:45:41;;;;;;;41.35;10.32;;;7.30;99.90;;;;;;5073257;28;20131;-73
2022/01/27 09:48:13;;;;;;;48.87;13.13;;;7.40;99.90;;;;;;5073553;28;20044;-72
2022/01/27 09:53:08;;;;;;;40.30;10.30;;;7.50;99.90;;;;;;5072997;28;20044;-73
2022/01/27 09:55:34;;;;;;;42.53;10.18;;;7.60;99.90;;;;;;5055278;28;20040;-72
2022/01/27 09:58:01;;;;;;;43.97;11.57;;;7.60;99.90;;;;;;5073374;28;20103;-71
2022/01/27 10:00:28;;;;;;;38.03;9.93;;;7.60;99.90;;;;;;5055884;28;20056;-72
2022/01/27 10:03:13;;;;;;;33.15;9.48;;;7.70;99.90;;;;;;5073085;28;20127;-72
2022/01/27 10:05:40;;;;;;;33.80;9.63;;;7.70;99.90;;;;;;5055589;28;20094;-71
2022/01/27 10:08:10;;;;;;;;;;;7.70;99.90;;;;;;5055813;28;20449;-74
2022/01/27 10:10:42;;;;;;;41.42;10.05;;;7.70;99.90;;;;;;5055042;28;20368;-71
2022/01/27 10:13:10;;;;;;;37.78;8.48;;;7.60;99.90;;;;;;5055411;28;20094;-72
2022/01/27 10:15:43;;;;;;;33.92;8.32;;;7.60;99.90;;;;;;5055583;28;20070;-71
2022/01/27 10:18:14;;;;;;;36.33;10.30;;;7.60;99.90;;;;;;5054947;28;20045;-71
2022/01/27 10:20:44;;;;;;;37.83;9.52;;;7.70;99.90;;;;;;5055101;28;20102;-73
2022/01/27 10:23:22;;;;;;;28.08;8.90;;;7.70;99.90;;;;;;5055289;28;20056;-71
2022/01/27 10:25:55;;;;;;;42.90;8.68;;;7.70;99.90;;;;;;5072656;28;20078;-72
2022/01/27 10:28:23;;;;;;;31.23;8.40;;;7.70;99.90;;;;;;5054488;28;20056;-74
2022/01/27 10:31:05;;;;;;;37.50;8.38;;;7.70;99.90;;;;;;5054779;28;20094;-72
2022/01/27 10:33:44;;;;;;;40.13;8.93;;;7.70;99.90;;;;;;5072504;28;20048;-73
2022/01/27 10:36:17;;;;;;;29.92;7.20;;;7.70;99.90;;;;;;5072604;28;20059;-73
2022/01/27 10:38:42;;;;;;;26.08;7.60;;;7.70;99.90;;;;;;5038244;28;20139;-72
2022/01/27 10:41:08;;;;;;;37.25;7.85;;;7.70;99.90;;;;;;5072462;28;20123;-72
2022/01/27 10:43:34;;;;;;;32.78;7.78;;;7.80;99.90;;;;;;5055082;28;20048;-72
2022/01/27 10:46:16;;;;;;;27.50;7.28;;;7.80;99.90;;;;;;5037879;28;20390;-72
2022/01/27 10:48:51;;;;;;;27.17;6.57;;;7.80;99.90;;;;;;5072459;28;20044;-73
2022/01/27 10:51:25;;;;;;;33.22;6.72;;;7.80;99.90;;;;;;5073012;28;20074;-73
2022/01/27 10:54:18;;;;;;;34.05;7.20;;;7.80;99.90;;;;;;5037617;28;20044;-73
2022/01/27 10:56:45;;;;;;;34.83;6.95;;;7.80;99.90;;;;;;5037850;28;20101;-72
2022/01/27 10:59:13;;;;;;;;;;;7.80;99.90;;;;;;5055109;28;20162;-73
2022/01/27 11:01:40;;;;;;;28.80;6.70;;;7.90;99.90;;;;;;5021794;28;19920;-73
2022/01/27 11:04:10;;;;;;;35.67;6.50;;;7.90;99.90;;;;;;5054499;28;20137;-72
2022/01/27 11:06:37;;;;;;;26.25;6.47;;;7.90;99.90;;;;;;5037809;28;20480;-72
2022/01/27 11:09:09;;;;;;;32.10;7.20;;;8.00;99.90;;;;;;5054070;28;20048;-71
2022/01/27 11:11:39;;;;;;;27.05;5.90;;;8.10;99.90;;;;;;5038226;28;20110;-73
2022/01/27 11:14:05;;;;;;;27.13;6.57;;;8.10;99.90;;;;;;5054247;28;20506;-72
2022/01/27 11:16:37;;;;;;;25.70;6.00;;;8.10;99.90;;;;;;5037881;28;20096;-71
2022/01/27 11:21:42;;;;;;;32.13;6.70;;;8.20;99.90;;;;;;5072102;28;20056;-72
2022/01/27 11:24:24;;;;;;;32.47;7.10;;;8.20;99.90;;;;;;5053943;28;20084;-73
2022/01/27 11:26:54;;;;;;;30.13;6.18;;;8.20;99.90;;;;;;5072063;28;20052;-72
2022/01/27 11:29:21;;;;;;;27.25;5.85;;;8.20;99.90;;;;;;5021150;28;20049;-72
2022/01/27 11:31:53;;;;;;;;;;;8.30;99.90;;;;;;5072381;28;20056;-72
2022/01/27 11:34:18;;;;;;;28.73;6.75;;;8.50;99.90;;;;;;5037343;28;19927;-71
2022/01/27 11:37:33;;;;;;;26.27;6.30;;;8.50;99.90;;;;;;5071929;28;20060;-72
2022/01/27 11:40:12;;;;;;;22.92;6.50;;;8.60;99.90;;;;;;5009877;28;20060;-72
2022/01/27 11:42:38;;;;;;;27.58;5.90;;;8.70;99.90;;;;;;5055000;28;20106;-72
2022/01/27 11:45:29;;;;;;;28.33;6.57;;;8.70;99.90;;;;;;5075673;28;20448;-72
2022/01/27 11:47:59;;;;;;;31.48;5.32;;;8.80;99.90;;;;;;5057995;28;20048;-73
2022/01/27 11:50:36;;;;;;;23.63;5.35;;;8.80;99.90;;;;;;5057767;28;20040;-71
2022/01/27 11:53:07;;;;;;;24.45;4.80;;;8.80;99.90;;;;;;5075705;28;20040;-72
2022/01/27 11:55:33;;;;;;;20.92;4.28;;;8.80;99.90;;;;;;5075852;28;20430;-71
2022/01/27 11:58:20;;;;;;;20.90;4.90;;;8.80;99.90;;;;;;5057510;28;20106;-71
2022/01/27 12:01:22;;;;;;;23.95;4.80;;;8.80;99.90;;;;;;5057675;28;20128;-72
2022/01/27 12:04:07;;;;;;;23.60;4.97;;;8.90;99.90;;;;;;5057697;28;20048;-71
2022/01/27 12:06:41;;;;;;;19.92;4.38;;;9.00;99.90;;;;;;5058101;28;20041;-70
2022/01/27 12:09:36;;;;;;;24.60;3.90;;;9.00;99.90;;;;;;5041113;28;20128;-73
2022/01/27 12:12:11;;;;;;;25.15;3.47;;;9.10;99.90;;;;;;5044355;28;20064;-71
2022/01/27 12:14:39;;;;;;;16.25;3.33;;;9.10;99.90;;;;;;5075448;28;20040;-70
2022/01/27 12:17:12;;;;;;;21.55;2.80;;;9.30;99.90;;;;;;5057041;28;20079;-73
2022/01/27 12:20:00;;;;;;;23.52;3.97;;;9.30;99.90;;;;;;5057167;28;20140;-71
2022/01/27 12:22:28;;;;;;;19.80;2.90;;;9.30;99.90;;;;;;5075385;28;20162;-71
2022/01/27 12:24:59;;;;;;;18.85;3.22;;;9.30;99.90;;;;;;5075413;28;20102;-73
2022/01/27 12:27:28;;;;;;;16.40;3.33;;;9.40;99.90;;;;;;5057189;28;20131;-75
2022/01/27 12:29:56;;;;;;;21.15;2.58;;;9.30;99.90;;;;;;5057084;28;20048;-71
2022/01/27 12:32:23;;;;;;;19.73;3.03;;;9.30;99.90;;;;;;5056693;28;20043;-72
2022/01/27 12:35:00;;;;;;;17.38;3.28;;;9.30;99.90;;;;;;5040972;28;20052;-72
2022/01/27 12:37:34;;;;;;;20.70;3.47;;;9.20;99.90;;;;;;5056444;28;20055;-72
2022/01/27 12:40:14;;;;;;;15.90;2.80;;;9.20;99.90;;;;;;5056879;28;20088;-73
2022/01/27 12:42:49;;;;;;;20.80;2.90;;;9.20;99.90;;;;;;5056545;28;20048;-71
2022/01/27 12:45:14;;;;;;;11.93;2.80;;;9.20;99.90;;;;;;5074663;28;20044;-71
2022/01/27 12:47:47;;;;;;;25.08;3.60;;;9.20;99.90;;;;;;5074456;28;20066;-71
2022/01/27 12:50:17;;;;;;;18.60;2.65;;;9.20;99.90;;;;;;5056690;28;20052;-71
2022/01/27 12:52:46;;;;;;;16.85;3.00;;;9.20;99.90;;;;;;5056219;28;20463;-72
2022/01/27 12:55:14;;;;;;;22.10;2.50;;;9.20;99.90;;;;;;5074242;28;20174;-71
2022/01/27 12:57:41;;;;;;;18.40;2.70;;;9.10;99.90;;;;;;5074458;28;20488;-72
2022/01/27 13:00:12;;;;;;;18.10;2.63;;;9.10;99.90;;;;;;5039290;28;20086;-72
2022/01/27 13:02:39;;;;;;;22.52;3.60;;;9.10;99.90;;;;;;5039957;28;20055;-72
2022/01/27 13:05:07;;;;;;;24.70;2.85;;;9.00;99.90;;;;;;5074017;28;20048;-72
2022/01/27 13:07:38;;;;;;;18.95;2.85;;;9.10;99.90;;;;;;5023501;28;20074;-72
2022/01/27 13:10:10;;;;;;;24.52;3.70;;;9.10;99.90;;;;;;5074485;28;20135;-74
2022/01/27 13:12:43;;;;;;;23.85;2.85;;;9.20;99.90;;;;;;5057063;28;20079;-72
2022/01/27 13:15:14;;;;;;;23.65;2.45;;;9.20;99.90;;;;;;5055802;28;20087;-72
2022/01/27 13:17:48;;;;;;;23.85;2.83;;;9.20;99.90;;;;;;5040004;28;20108;-73
2022/01/27 13:20:23;;;;;;;20.45;2.40;;;9.20;99.90;;;;;;5056722;28;20080;-74
2022/01/27 13:23:03;;;;;;;22.27;2.97;;;9.20;99.90;;;;;;5040373;28;20168;-73
2022/01/27 13:25:39;;;;;;;17.33;2.17;;;9.20;99.90;;;;;;5056409;28;20052;-72
2022/01/27 13:28:06;;;;;;;19.45;2.95;;;9.30;99.90;;;;;;5073543;28;20040;-75
2022/01/27 13:30:33;;;;;;;27.60;3.78;;;9.20;99.90;;;;;;5055811;28;20150;-73
2022/01/27 13:32:59;;;;;;;20.17;2.35;;;9.20;99.90;;;;;;5039450;28;20048;-73
2022/01/27 13:35:25;;;;;;;19.98;2.55;;;9.20;99.90;;;;;;5055864;28;20493;-72
2022/01/27 13:37:56;;;;;;;20.17;2.15;;;9.30;99.90;;;;;;5055762;28;20131;-71
2022/01/27 13:43:14;;;;;;;21.23;2.63;;;9.10;99.90;;;;;;5056187;28;20045;-73
2022/01/27 13:45:40;;;;;;;19.55;2.10;;;9.10;99.90;;;;;;5055226;28;20131;-73